sensor_id;sensor_type;location;lat;lon;timestamp;P1;durP1;ratioP1;P2;durP2;ratioP2
75446;SDS011;64024;55.820;37.574;2024-01-30T00:02:23;2.45;;;1.20;;
75446;SDS011;64024;55.820;37.574;2024-01-30T00:04:52;3.08;;;1.30;;
75446;SDS011;64024;55.820;37.574;2024-01-30T00:07:19;3.00;;;1.02;;
75446;SDS011;64024;55.820;37.574;2024-01-30T00:09:46;2.28;;;0.95;;
75446;SDS011;64024;55.820;37.574;2024-01-30T00:12:14;2.55;;;1.20;;
75446;SDS011;64024;55.820;37.574;2024-01-30T00:14:43;1.58;;;1.00;;
75446;SDS011;64024;55.820;37.574;2024-01-30T00:17:10;1.75;;;0.80;;
75446;SDS011;64024;55.820;37.574;2024-01-30T00:19:39;1.95;;;0.85;;
75446;SDS011;64024;55.820;37.574;2024-01-30T00:22:05;2.88;;;1.05;;
75446;SDS011;64024;55.820;37.574;2024-01-30T00:24:34;1.85;;;1.00;;
75446;SDS011;64024;55.820;37.574;2024-01-30T00:27:01;1.60;;;0.93;;
75446;SDS011;64024;55.820;37.574;2024-01-30T00:29:30;1.65;;;0.80;;
75446;SDS011;64024;55.820;37.574;2024-01-30T00:31:59;1.88;;;1.15;;
75446;SDS011;64024;55.820;37.574;2024-01-30T00:34:26;1.77;;;1.00;;
75446;SDS011;64024;55.820;37.574;2024-01-30T00:36:52;1.75;;;1.10;;
75446;SDS011;64024;55.820;37.574;2024-01-30T00:39:20;1.70;;;1.00;;
75446;SDS011;64024;55.820;37.574;2024-01-30T00:41:47;2.35;;;1.02;;
75446;SDS011;64024;55.820;37.574;2024-01-30T00:44:16;2.55;;;1.85;;
75446;SDS011;64024;55.820;37.574;2024-01-30T00:46:43;2.08;;;1.00;;
75446;SDS011;64024;55.820;37.574;2024-01-30T00:49:10;1.75;;;1.40;;
75446;SDS011;64024;55.820;37.574;2024-01-30T00:51:37;1.83;;;0.90;;
75446;SDS011;64024;55.820;37.574;2024-01-30T00:54:09;1.88;;;1.10;;
75446;SDS011;64024;55.820;37.574;2024-01-30T00:56:38;2.25;;;1.13;;
75446;SDS011;64024;55.820;37.574;2024-01-30T00:59:04;2.10;;;0.90;;
75446;SDS011;64024;55.820;37.574;2024-01-30T01:01:31;1.77;;;1.08;;
75446;SDS011;64024;55.820;37.574;2024-01-30T01:03:57;2.10;;;1.00;;
75446;SDS011;64024;55.820;37.574;2024-01-30T01:06:24;1.90;;;1.20;;
75446;SDS011;64024;55.820;37.574;2024-01-30T01:08:50;2.08;;;1.00;;
75446;SDS011;64024;55.820;37.574;2024-01-30T01:13:45;1.95;;;1.08;;
75446;SDS011;64024;55.820;37.574;2024-01-30T01:16:12;2.25;;;0.90;;
75446;SDS011;64024;55.820;37.574;2024-01-30T01:18:38;2.25;;;1.00;;
75446;SDS011;64024;55.820;37.574;2024-01-30T01:21:07;2.03;;;1.23;;
75446;SDS011;64024;55.820;37.574;2024-01-30T01:23:36;2.20;;;0.90;;
75446;SDS011;64024;55.820;37.574;2024-01-30T01:26:01;2.42;;;1.00;;
75446;SDS011;64024;55.820;37.574;2024-01-30T01:28:29;1.80;;;1.02;;
75446;SDS011;64024;55.820;37.574;2024-01-30T01:30:56;1.92;;;1.02;;
75446;SDS011;64024;55.820;37.574;2024-01-30T01:33:24;2.03;;;1.02;;
75446;SDS011;64024;55.820;37.574;2024-01-30T01:35:51;1.52;;;1.00;;
75446;SDS011;64024;55.820;37.574;2024-01-30T01:38:17;2.03;;;1.30;;
75446;SDS011;64024;55.820;37.574;2024-01-30T01:40:44;2.60;;;1.15;;
75446;SDS011;64024;55.820;37.574;2024-01-30T01:43:11;1.60;;;0.93;;
75446;SDS011;64024;55.820;37.574;2024-01-30T01:45:38;1.60;;;0.90;;
75446;SDS011;64024;55.820;37.574;2024-01-30T01:48:05;1.95;;;1.00;;
75446;SDS011;64024;55.820;37.574;2024-01-30T01:50:33;1.45;;;0.80;;
75446;SDS011;64024;55.820;37.574;2024-01-30T01:53:00;2.47;;;1.27;;
75446;SDS011;64024;55.820;37.574;2024-01-30T01:57:57;1.63;;;0.98;;
75446;SDS011;64024;55.820;37.574;2024-01-30T02:00:23;1.88;;;1.05;;
75446;SDS011;64024;55.820;37.574;2024-01-30T02:02:52;2.40;;;1.38;;
75446;SDS011;64024;55.820;37.574;2024-01-30T02:05:20;2.20;;;1.15;;
75446;SDS011;64024;55.820;37.574;2024-01-30T02:07:48;2.17;;;1.00;;
75446;SDS011;64024;55.820;37.574;2024-01-30T02:10:16;2.05;;;0.90;;
75446;SDS011;64024;55.820;37.574;2024-01-30T02:12:43;1.50;;;1.00;;
75446;SDS011;64024;55.820;37.574;2024-01-30T02:15:12;2.13;;;1.10;;
75446;SDS011;64024;55.820;37.574;2024-01-30T02:17:39;1.50;;;0.88;;
75446;SDS011;64024;55.820;37.574;2024-01-30T02:20:08;1.63;;;0.90;;
75446;SDS011;64024;55.820;37.574;2024-01-30T02:22:34;1.92;;;1.35;;
75446;SDS011;64024;55.820;37.574;2024-01-30T02:25:03;1.40;;;0.80;;
75446;SDS011;64024;55.820;37.574;2024-01-30T02:27:30;2.00;;;1.35;;
75446;SDS011;64024;55.820;37.574;2024-01-30T02:29:56;1.85;;;0.90;;
75446;SDS011;64024;55.820;37.574;2024-01-30T02:32:24;1.77;;;0.90;;
75446;SDS011;64024;55.820;37.574;2024-01-30T02:34:51;1.75;;;1.00;;
75446;SDS011;64024;55.820;37.574;2024-01-30T02:37:17;1.67;;;1.00;;
75446;SDS011;64024;55.820;37.574;2024-01-30T02:42:11;1.75;;;0.98;;
75446;SDS011;64024;55.820;37.574;2024-01-30T02:44:38;1.98;;;1.05;;
75446;SDS011;64024;55.820;37.574;2024-01-30T02:47:04;2.22;;;1.38;;
75446;SDS011;64024;55.820;37.574;2024-01-30T02:49:30;1.88;;;1.08;;
75446;SDS011;64024;55.820;37.574;2024-01-30T02:51:59;1.83;;;1.10;;
75446;SDS011;64024;55.820;37.574;2024-01-30T02:54:25;1.65;;;1.10;;
75446;SDS011;64024;55.820;37.574;2024-01-30T02:56:51;1.88;;;1.08;;
75446;SDS011;64024;55.820;37.574;2024-01-30T02:59:18;2.58;;;1.27;;
75446;SDS011;64024;55.820;37.574;2024-01-30T03:01:48;2.13;;;1.15;;
75446;SDS011;64024;55.820;37.574;2024-01-30T03:04:14;4.22;;;1.15;;
75446;SDS011;64024;55.820;37.574;2024-01-30T03:06:47;1.58;;;0.93;;
75446;SDS011;64024;55.820;37.574;2024-01-30T03:09:15;2.45;;;1.05;;
75446;SDS011;64024;55.820;37.574;2024-01-30T03:11:44;1.73;;;0.85;;
75446;SDS011;64024;55.820;37.574;2024-01-30T03:14:13;2.00;;;1.20;;
75446;SDS011;64024;55.820;37.574;2024-01-30T03:16:41;2.22;;;1.25;;
75446;SDS011;64024;55.820;37.574;2024-01-30T03:19:08;1.70;;;0.98;;
75446;SDS011;64024;55.820;37.574;2024-01-30T03:21:39;2.00;;;1.27;;
75446;SDS011;64024;55.820;37.574;2024-01-30T03:24:05;2.50;;;1.23;;
75446;SDS011;64024;55.820;37.574;2024-01-30T03:26:31;3.35;;;1.00;;
75446;SDS011;64024;55.820;37.574;2024-01-30T03:28:57;3.70;;;1.30;;
75446;SDS011;64024;55.820;37.574;2024-01-30T03:31:34;2.55;;;1.30;;
75446;SDS011;64024;55.820;37.574;2024-01-30T03:34:03;2.38;;;1.13;;
75446;SDS011;64024;55.820;37.574;2024-01-30T03:38:58;2.17;;;1.20;;
75446;SDS011;64024;55.820;37.574;2024-01-30T03:41:28;2.67;;;1.20;;
75446;SDS011;64024;55.820;37.574;2024-01-30T03:43:57;3.17;;;1.30;;
75446;SDS011;64024;55.820;37.574;2024-01-30T03:46:25;2.58;;;1.75;;
75446;SDS011;64024;55.820;37.574;2024-01-30T03:48:52;1.42;;;0.95;;
75446;SDS011;64024;55.820;37.574;2024-01-30T03:51:21;3.47;;;2.13;;
75446;SDS011;64024;55.820;37.574;2024-01-30T03:53:52;1.73;;;1.33;;
75446;SDS011;64024;55.820;37.574;2024-01-30T03:56:18;2.30;;;1.15;;
75446;SDS011;64024;55.820;37.574;2024-01-30T03:58:44;2.08;;;1.17;;
75446;SDS011;64024;55.820;37.574;2024-01-30T04:01:14;2.22;;;1.00;;
75446;SDS011;64024;55.820;37.574;2024-01-30T04:03:41;2.22;;;1.27;;
75446;SDS011;64024;55.820;37.574;2024-01-30T04:06:14;1.58;;;0.93;;
75446;SDS011;64024;55.820;37.574;2024-01-30T04:08:42;2.65;;;1.40;;
75446;SDS011;64024;55.820;37.574;2024-01-30T04:11:08;2.03;;;1.38;;
75446;SDS011;64024;55.820;37.574;2024-01-30T04:13:38;2.35;;;1.20;;
75446;SDS011;64024;55.820;37.574;2024-01-30T04:16:18;1.98;;;1.08;;
75446;SDS011;64024;55.820;37.574;2024-01-30T04:18:47;1.63;;;1.15;;
75446;SDS011;64024;55.820;37.574;2024-01-30T04:21:16;2.55;;;1.30;;
75446;SDS011;64024;55.820;37.574;2024-01-30T04:23:45;2.03;;;1.23;;
75446;SDS011;64024;55.820;37.574;2024-01-30T04:26:14;2.40;;;0.95;;
75446;SDS011;64024;55.820;37.574;2024-01-30T04:28:46;2.17;;;1.10;;
75446;SDS011;64024;55.820;37.574;2024-01-30T04:31:14;2.03;;;1.13;;
75446;SDS011;64024;55.820;37.574;2024-01-30T04:33:40;1.83;;;1.10;;
75446;SDS011;64024;55.820;37.574;2024-01-30T04:36:08;2.63;;;1.00;;
75446;SDS011;64024;55.820;37.574;2024-01-30T04:38:37;2.20;;;1.13;;
75446;SDS011;64024;55.820;37.574;2024-01-30T04:41:04;2.00;;;1.27;;
75446;SDS011;64024;55.820;37.574;2024-01-30T04:43:34;1.60;;;1.00;;
75446;SDS011;64024;55.820;37.574;2024-01-30T04:46:02;2.65;;;1.73;;
75446;SDS011;64024;55.820;37.574;2024-01-30T04:48:28;5.20;;;1.38;;
75446;SDS011;64024;55.820;37.574;2024-01-30T04:50:55;2.10;;;1.30;;
75446;SDS011;64024;55.820;37.574;2024-01-30T04:53:23;2.70;;;1.40;;
75446;SDS011;64024;55.820;37.574;2024-01-30T04:55:50;3.55;;;1.40;;
75446;SDS011;64024;55.820;37.574;2024-01-30T04:58:17;1.75;;;1.00;;
75446;SDS011;64024;55.820;37.574;2024-01-30T05:00:44;2.30;;;1.05;;
75446;SDS011;64024;55.820;37.574;2024-01-30T05:03:19;3.33;;;1.17;;
75446;SDS011;64024;55.820;37.574;2024-01-30T05:05:49;3.58;;;1.20;;
75446;SDS011;64024;55.820;37.574;2024-01-30T05:08:16;2.28;;;1.35;;
75446;SDS011;64024;55.820;37.574;2024-01-30T05:10:43;1.58;;;1.02;;
75446;SDS011;64024;55.820;37.574;2024-01-30T05:13:11;1.70;;;0.90;;
75446;SDS011;64024;55.820;37.574;2024-01-30T05:15:39;1.83;;;1.17;;
75446;SDS011;64024;55.820;37.574;2024-01-30T05:18:05;1.77;;;1.20;;
75446;SDS011;64024;55.820;37.574;2024-01-30T05:20:31;2.53;;;1.02;;
75446;SDS011;64024;55.820;37.574;2024-01-30T05:22:58;1.73;;;1.02;;
75446;SDS011;64024;55.820;37.574;2024-01-30T05:25:25;2.75;;;1.10;;
75446;SDS011;64024;55.820;37.574;2024-01-30T05:27:53;2.10;;;1.42;;
75446;SDS011;64024;55.820;37.574;2024-01-30T05:30:20;1.85;;;1.30;;
75446;SDS011;64024;55.820;37.574;2024-01-30T05:32:48;2.00;;;1.17;;
75446;SDS011;64024;55.820;37.574;2024-01-30T05:35:18;2.50;;;1.10;;
75446;SDS011;64024;55.820;37.574;2024-01-30T05:37:47;1.88;;;1.33;;
75446;SDS011;64024;55.820;37.574;2024-01-30T05:40:17;2.88;;;1.25;;
75446;SDS011;64024;55.820;37.574;2024-01-30T05:42:44;1.65;;;1.10;;
75446;SDS011;64024;55.820;37.574;2024-01-30T05:45:11;1.70;;;0.93;;
75446;SDS011;64024;55.820;37.574;2024-01-30T05:47:42;2.03;;;1.13;;
75446;SDS011;64024;55.820;37.574;2024-01-30T05:50:11;1.58;;;0.85;;
75446;SDS011;64024;55.820;37.574;2024-01-30T05:52:40;1.83;;;1.02;;
75446;SDS011;64024;55.820;37.574;2024-01-30T05:55:07;1.88;;;1.33;;
75446;SDS011;64024;55.820;37.574;2024-01-30T06:00:03;2.10;;;1.10;;
75446;SDS011;64024;55.820;37.574;2024-01-30T06:02:34;2.17;;;1.23;;
75446;SDS011;64024;55.820;37.574;2024-01-30T06:05:01;2.65;;;1.20;;
75446;SDS011;64024;55.820;37.574;2024-01-30T06:07:28;2.47;;;1.55;;
75446;SDS011;64024;55.820;37.574;2024-01-30T06:09:58;2.28;;;0.90;;
75446;SDS011;64024;55.820;37.574;2024-01-30T06:12:28;1.90;;;0.65;;
75446;SDS011;64024;55.820;37.574;2024-01-30T06:14:59;2.58;;;1.55;;
75446;SDS011;64024;55.820;37.574;2024-01-30T06:17:29;2.10;;;1.10;;
75446;SDS011;64024;55.820;37.574;2024-01-30T06:19:57;2.15;;;1.35;;
75446;SDS011;64024;55.820;37.574;2024-01-30T06:22:24;1.80;;;1.13;;
75446;SDS011;64024;55.820;37.574;2024-01-30T06:24:55;1.85;;;1.20;;
75446;SDS011;64024;55.820;37.574;2024-01-30T06:27:22;3.80;;;1.50;;
75446;SDS011;64024;55.820;37.574;2024-01-30T06:29:49;2.28;;;1.45;;
75446;SDS011;64024;55.820;37.574;2024-01-30T06:32:17;2.33;;;1.80;;
75446;SDS011;64024;55.820;37.574;2024-01-30T06:34:46;1.95;;;1.20;;
75446;SDS011;64024;55.820;37.574;2024-01-30T06:37:15;2.90;;;1.58;;
75446;SDS011;64024;55.820;37.574;2024-01-30T06:39:41;1.92;;;1.42;;
75446;SDS011;64024;55.820;37.574;2024-01-30T06:42:08;2.17;;;1.40;;
75446;SDS011;64024;55.820;37.574;2024-01-30T06:44:34;2.10;;;1.38;;
75446;SDS011;64024;55.820;37.574;2024-01-30T06:47:01;2.47;;;1.45;;
75446;SDS011;64024;55.820;37.574;2024-01-30T06:49:28;1.85;;;1.52;;
75446;SDS011;64024;55.820;37.574;2024-01-30T06:51:55;2.60;;;1.23;;
75446;SDS011;64024;55.820;37.574;2024-01-30T06:54:21;2.97;;;1.42;;
75446;SDS011;64024;55.820;37.574;2024-01-30T06:56:51;2.10;;;1.40;;
75446;SDS011;64024;55.820;37.574;2024-01-30T06:59:19;2.47;;;1.48;;
75446;SDS011;64024;55.820;37.574;2024-01-30T07:01:46;2.38;;;1.23;;
75446;SDS011;64024;55.820;37.574;2024-01-30T07:04:11;2.10;;;1.23;;
75446;SDS011;64024;55.820;37.574;2024-01-30T07:06:39;2.53;;;1.40;;
75446;SDS011;64024;55.820;37.574;2024-01-30T07:09:09;2.63;;;1.42;;
75446;SDS011;64024;55.820;37.574;2024-01-30T07:11:35;2.55;;;1.40;;
75446;SDS011;64024;55.820;37.574;2024-01-30T07:14:01;2.38;;;1.42;;
75446;SDS011;64024;55.820;37.574;2024-01-30T07:16:34;2.70;;;1.70;;
75446;SDS011;64024;55.820;37.574;2024-01-30T07:21:29;2.85;;;1.58;;
75446;SDS011;64024;55.820;37.574;2024-01-30T07:23:57;2.92;;;1.90;;
75446;SDS011;64024;55.820;37.574;2024-01-30T07:26:24;4.10;;;1.85;;
75446;SDS011;64024;55.820;37.574;2024-01-30T07:28:51;3.05;;;1.92;;
75446;SDS011;64024;55.820;37.574;2024-01-30T07:31:17;3.05;;;2.22;;
75446;SDS011;64024;55.820;37.574;2024-01-30T07:33:46;3.15;;;2.30;;
75446;SDS011;64024;55.820;37.574;2024-01-30T07:36:13;3.63;;;2.58;;
75446;SDS011;64024;55.820;37.574;2024-01-30T07:38:39;3.92;;;2.60;;
75446;SDS011;64024;55.820;37.574;2024-01-30T07:41:07;3.25;;;2.63;;
75446;SDS011;64024;55.820;37.574;2024-01-30T07:43:33;4.22;;;3.22;;
75446;SDS011;64024;55.820;37.574;2024-01-30T07:46:02;4.88;;;4.47;;
75446;SDS011;64024;55.820;37.574;2024-01-30T07:48:29;5.07;;;4.35;;
75446;SDS011;64024;55.820;37.574;2024-01-30T07:50:58;4.65;;;4.22;;
75446;SDS011;64024;55.820;37.574;2024-01-30T07:53:26;4.90;;;4.40;;
75446;SDS011;64024;55.820;37.574;2024-01-30T07:56:03;5.30;;;3.88;;
75446;SDS011;64024;55.820;37.574;2024-01-30T07:58:41;4.78;;;4.32;;
75446;SDS011;64024;55.820;37.574;2024-01-30T08:01:11;4.18;;;3.78;;
75446;SDS011;64024;55.820;37.574;2024-01-30T08:03:38;4.78;;;3.67;;
75446;SDS011;64024;55.820;37.574;2024-01-30T08:06:07;3.10;;;2.80;;
75446;SDS011;64024;55.820;37.574;2024-01-30T08:08:37;3.55;;;2.80;;
75446;SDS011;64024;55.820;37.574;2024-01-30T08:11:06;4.07;;;2.90;;
75446;SDS011;64024;55.820;37.574;2024-01-30T08:13:35;4.28;;;2.83;;
75446;SDS011;64024;55.820;37.574;2024-01-30T08:16:04;3.75;;;3.25;;
75446;SDS011;64024;55.820;37.574;2024-01-30T08:18:34;5.07;;;2.85;;
75446;SDS011;64024;55.820;37.574;2024-01-30T08:21:04;3.70;;;2.95;;
75446;SDS011;64024;55.820;37.574;2024-01-30T08:23:33;3.47;;;3.17;;
75446;SDS011;64024;55.820;37.574;2024-01-30T08:26:01;4.93;;;3.13;;
75446;SDS011;64024;55.820;37.574;2024-01-30T08:28:29;3.90;;;2.85;;
75446;SDS011;64024;55.820;37.574;2024-01-30T08:31:01;5.05;;;2.33;;
75446;SDS011;64024;55.820;37.574;2024-01-30T08:33:33;3.40;;;2.40;;
75446;SDS011;64024;55.820;37.574;2024-01-30T08:36:00;3.05;;;2.20;;
75446;SDS011;64024;55.820;37.574;2024-01-30T08:38:27;4.35;;;2.15;;
75446;SDS011;64024;55.820;37.574;2024-01-30T08:40:56;3.63;;;2.35;;
75446;SDS011;64024;55.820;37.574;2024-01-30T08:43:24;4.85;;;3.00;;
75446;SDS011;64024;55.820;37.574;2024-01-30T08:45:53;5.15;;;2.47;;
75446;SDS011;64024;55.820;37.574;2024-01-30T08:48:22;3.63;;;3.25;;
75446;SDS011;64024;55.820;37.574;2024-01-30T08:50:51;4.13;;;2.85;;
75446;SDS011;64024;55.820;37.574;2024-01-30T08:53:17;3.75;;;2.83;;
75446;SDS011;64024;55.820;37.574;2024-01-30T08:55:46;3.72;;;2.38;;
75446;SDS011;64024;55.820;37.574;2024-01-30T08:58:13;3.35;;;2.30;;
75446;SDS011;64024;55.820;37.574;2024-01-30T09:00:41;3.33;;;2.35;;
75446;SDS011;64024;55.820;37.574;2024-01-30T09:03:08;4.97;;;2.42;;
75446;SDS011;64024;55.820;37.574;2024-01-30T09:05:35;4.28;;;2.80;;
75446;SDS011;64024;55.820;37.574;2024-01-30T09:08:04;4.07;;;3.13;;
75446;SDS011;64024;55.820;37.574;2024-01-30T09:10:33;4.07;;;2.72;;
75446;SDS011;64024;55.820;37.574;2024-01-30T09:12:59;3.60;;;2.13;;
75446;SDS011;64024;55.820;37.574;2024-01-30T09:15:26;2.58;;;1.85;;
75446;SDS011;64024;55.820;37.574;2024-01-30T09:17:52;3.47;;;1.88;;
75446;SDS011;64024;55.820;37.574;2024-01-30T09:20:18;2.45;;;1.48;;
75446;SDS011;64024;55.820;37.574;2024-01-30T09:22:47;3.28;;;1.88;;
75446;SDS011;64024;55.820;37.574;2024-01-30T09:25:14;3.03;;;1.63;;
75446;SDS011;64024;55.820;37.574;2024-01-30T09:27:41;3.10;;;2.00;;
75446;SDS011;64024;55.820;37.574;2024-01-30T09:30:07;2.97;;;1.73;;
75446;SDS011;64024;55.820;37.574;2024-01-30T09:32:35;2.78;;;1.55;;
75446;SDS011;64024;55.820;37.574;2024-01-30T09:35:02;2.15;;;1.77;;
75446;SDS011;64024;55.820;37.574;2024-01-30T09:37:29;2.90;;;1.70;;
75446;SDS011;64024;55.820;37.574;2024-01-30T09:39:58;2.58;;;1.80;;
75446;SDS011;64024;55.820;37.574;2024-01-30T09:42:34;3.78;;;2.00;;
75446;SDS011;64024;55.820;37.574;2024-01-30T09:45:24;3.45;;;1.85;;
75446;SDS011;64024;55.820;37.574;2024-01-30T09:47:52;4.07;;;1.98;;
75446;SDS011;64024;55.820;37.574;2024-01-30T09:50:22;3.58;;;1.90;;
75446;SDS011;64024;55.820;37.574;2024-01-30T09:52:49;3.78;;;2.17;;
75446;SDS011;64024;55.820;37.574;2024-01-30T09:55:19;3.55;;;2.05;;
75446;SDS011;64024;55.820;37.574;2024-01-30T09:57:46;3.28;;;1.95;;
75446;SDS011;64024;55.820;37.574;2024-01-30T10:00:14;4.35;;;1.77;;
75446;SDS011;64024;55.820;37.574;2024-01-30T10:02:41;2.65;;;1.63;;
75446;SDS011;64024;55.820;37.574;2024-01-30T10:05:16;2.10;;;1.73;;
75446;SDS011;64024;55.820;37.574;2024-01-30T10:07:56;2.97;;;1.85;;
75446;SDS011;64024;55.820;37.574;2024-01-30T10:10:25;3.50;;;2.05;;
75446;SDS011;64024;55.820;37.574;2024-01-30T10:12:53;4.72;;;1.58;;
75446;SDS011;64024;55.820;37.574;2024-01-30T10:15:19;2.92;;;1.70;;
75446;SDS011;64024;55.820;37.574;2024-01-30T10:17:48;2.72;;;1.65;;
75446;SDS011;64024;55.820;37.574;2024-01-30T10:20:15;3.00;;;1.70;;
75446;SDS011;64024;55.820;37.574;2024-01-30T10:22:43;2.67;;;1.60;;
75446;SDS011;64024;55.820;37.574;2024-01-30T10:25:14;2.35;;;1.80;;
75446;SDS011;64024;55.820;37.574;2024-01-30T10:27:42;3.28;;;1.63;;
75446;SDS011;64024;55.820;37.574;2024-01-30T10:30:08;3.30;;;2.08;;
75446;SDS011;64024;55.820;37.574;2024-01-30T10:32:35;3.13;;;1.63;;
75446;SDS011;64024;55.820;37.574;2024-01-30T10:35:03;2.15;;;1.52;;
75446;SDS011;64024;55.820;37.574;2024-01-30T10:37:30;2.70;;;1.98;;
75446;SDS011;64024;55.820;37.574;2024-01-30T10:39:58;2.55;;;1.90;;
75446;SDS011;64024;55.820;37.574;2024-01-30T10:42:31;3.70;;;1.98;;
75446;SDS011;64024;55.820;37.574;2024-01-30T10:45:07;2.95;;;1.83;;
75446;SDS011;64024;55.820;37.574;2024-01-30T10:47:54;3.95;;;2.33;;
75446;SDS011;64024;55.820;37.574;2024-01-30T10:50:25;7.00;;;2.70;;
75446;SDS011;64024;55.820;37.574;2024-01-30T10:52:55;3.58;;;2.10;;
75446;SDS011;64024;55.820;37.574;2024-01-30T10:55:24;3.28;;;2.03;;
75446;SDS011;64024;55.820;37.574;2024-01-30T10:57:53;3.60;;;2.10;;
75446;SDS011;64024;55.820;37.574;2024-01-30T11:00:21;3.97;;;3.05;;
75446;SDS011;64024;55.820;37.574;2024-01-30T11:02:49;6.57;;;3.30;;
75446;SDS011;64024;55.820;37.574;2024-01-30T11:05:24;3.90;;;2.83;;
75446;SDS011;64024;55.820;37.574;2024-01-30T11:07:52;3.92;;;3.03;;
75446;SDS011;64024;55.820;37.574;2024-01-30T11:10:18;3.70;;;2.50;;
75446;SDS011;64024;55.820;37.574;2024-01-30T11:12:46;3.28;;;2.30;;
75446;SDS011;64024;55.820;37.574;2024-01-30T11:15:15;3.25;;;2.40;;
75446;SDS011;64024;55.820;37.574;2024-01-30T11:20:25;3.63;;;2.25;;
75446;SDS011;64024;55.820;37.574;2024-01-30T11:22:56;3.95;;;1.90;;
75446;SDS011;64024;55.820;37.574;2024-01-30T11:25:31;2.72;;;1.45;;
75446;SDS011;64024;55.820;37.574;2024-01-30T11:28:06;4.20;;;2.53;;
75446;SDS011;64024;55.820;37.574;2024-01-30T11:30:41;3.33;;;1.92;;
75446;SDS011;64024;55.820;37.574;2024-01-30T11:35:37;2.22;;;1.52;;
75446;SDS011;64024;55.820;37.574;2024-01-30T11:38:05;4.25;;;1.80;;
75446;SDS011;64024;55.820;37.574;2024-01-30T11:40:32;4.57;;;2.45;;
75446;SDS011;64024;55.820;37.574;2024-01-30T11:43:00;2.70;;;2.05;;
75446;SDS011;64024;55.820;37.574;2024-01-30T11:45:30;2.88;;;1.85;;
75446;SDS011;64024;55.820;37.574;2024-01-30T11:47:57;3.75;;;2.20;;
75446;SDS011;64024;55.820;37.574;2024-01-30T11:50:30;4.40;;;1.83;;
75446;SDS011;64024;55.820;37.574;2024-01-30T11:53:00;4.22;;;2.10;;
75446;SDS011;64024;55.820;37.574;2024-01-30T11:57:59;2.72;;;2.00;;
75446;SDS011;64024;55.820;37.574;2024-01-30T12:00:26;3.72;;;2.10;;
75446;SDS011;64024;55.820;37.574;2024-01-30T12:02:55;3.85;;;2.60;;
75446;SDS011;64024;55.820;37.574;2024-01-30T12:05:25;4.10;;;2.28;;
75446;SDS011;64024;55.820;37.574;2024-01-30T12:07:52;3.08;;;2.03;;
75446;SDS011;64024;55.820;37.574;2024-01-30T12:10:18;3.90;;;2.33;;
75446;SDS011;64024;55.820;37.574;2024-01-30T12:12:46;4.05;;;2.00;;
75446;SDS011;64024;55.820;37.574;2024-01-30T12:15:13;5.55;;;2.05;;
75446;SDS011;64024;55.820;37.574;2024-01-30T12:17:39;3.97;;;2.20;;
75446;SDS011;64024;55.820;37.574;2024-01-30T12:22:38;3.65;;;2.70;;
75446;SDS011;64024;55.820;37.574;2024-01-30T12:25:20;6.93;;;2.35;;
75446;SDS011;64024;55.820;37.574;2024-01-30T12:27:49;2.70;;;2.00;;
75446;SDS011;64024;55.820;37.574;2024-01-30T12:30:17;3.55;;;2.00;;
75446;SDS011;64024;55.820;37.574;2024-01-30T12:32:45;4.60;;;2.53;;
75446;SDS011;64024;55.820;37.574;2024-01-30T12:35:17;3.00;;;1.85;;
75446;SDS011;64024;55.820;37.574;2024-01-30T12:37:45;4.28;;;2.22;;
75446;SDS011;64024;55.820;37.574;2024-01-30T12:40:12;3.55;;;1.95;;
75446;SDS011;64024;55.820;37.574;2024-01-30T12:42:40;3.65;;;2.53;;
75446;SDS011;64024;55.820;37.574;2024-01-30T12:45:07;4.82;;;2.33;;
75446;SDS011;64024;55.820;37.574;2024-01-30T12:47:34;3.05;;;2.67;;
75446;SDS011;64024;55.820;37.574;2024-01-30T12:50:00;3.10;;;2.42;;
75446;SDS011;64024;55.820;37.574;2024-01-30T12:52:26;4.20;;;3.05;;
75446;SDS011;64024;55.820;37.574;2024-01-30T12:54:52;3.85;;;3.33;;
75446;SDS011;64024;55.820;37.574;2024-01-30T12:57:19;5.18;;;2.95;;
75446;SDS011;64024;55.820;37.574;2024-01-30T12:59:45;4.15;;;3.13;;
75446;SDS011;64024;55.820;37.574;2024-01-30T13:02:12;4.68;;;2.08;;
75446;SDS011;64024;55.820;37.574;2024-01-30T13:04:39;5.72;;;2.83;;
75446;SDS011;64024;55.820;37.574;2024-01-30T13:07:06;4.85;;;3.13;;
75446;SDS011;64024;55.820;37.574;2024-01-30T13:09:32;3.40;;;2.25;;
75446;SDS011;64024;55.820;37.574;2024-01-30T13:11:58;3.17;;;2.20;;
75446;SDS011;64024;55.820;37.574;2024-01-30T13:14:25;4.03;;;2.75;;
75446;SDS011;64024;55.820;37.574;2024-01-30T13:16:52;3.65;;;2.25;;
75446;SDS011;64024;55.820;37.574;2024-01-30T13:19:18;5.40;;;2.20;;
75446;SDS011;64024;55.820;37.574;2024-01-30T13:21:45;4.03;;;2.20;;
75446;SDS011;64024;55.820;37.574;2024-01-30T13:24:11;3.28;;;2.42;;
75446;SDS011;64024;55.820;37.574;2024-01-30T13:26:38;3.85;;;2.80;;
75446;SDS011;64024;55.820;37.574;2024-01-30T13:29:04;9.27;;;7.57;;
75446;SDS011;64024;55.820;37.574;2024-01-30T13:31:30;10.13;;;8.70;;
75446;SDS011;64024;55.820;37.574;2024-01-30T13:33:56;11.38;;;7.35;;
75446;SDS011;64024;55.820;37.574;2024-01-30T13:36:23;12.20;;;8.18;;
75446;SDS011;64024;55.820;37.574;2024-01-30T13:38:49;9.80;;;6.68;;
75446;SDS011;64024;55.820;37.574;2024-01-30T13:41:15;11.18;;;7.05;;
75446;SDS011;64024;55.820;37.574;2024-01-30T13:43:43;8.63;;;6.63;;
75446;SDS011;64024;55.820;37.574;2024-01-30T13:46:09;10.65;;;6.32;;
75446;SDS011;64024;55.820;37.574;2024-01-30T13:48:35;7.72;;;5.70;;
75446;SDS011;64024;55.820;37.574;2024-01-30T13:51:01;8.90;;;5.70;;
75446;SDS011;64024;55.820;37.574;2024-01-30T13:53:28;7.63;;;5.05;;
75446;SDS011;64024;55.820;37.574;2024-01-30T13:55:54;5.88;;;4.38;;
75446;SDS011;64024;55.820;37.574;2024-01-30T13:58:20;5.25;;;4.00;;
75446;SDS011;64024;55.820;37.574;2024-01-30T14:00:46;6.32;;;4.22;;
75446;SDS011;64024;55.820;37.574;2024-01-30T14:03:14;5.68;;;3.75;;
75446;SDS011;64024;55.820;37.574;2024-01-30T14:05:40;6.00;;;3.53;;
75446;SDS011;64024;55.820;37.574;2024-01-30T14:08:06;4.47;;;2.58;;
75446;SDS011;64024;55.820;37.574;2024-01-30T14:10:34;5.03;;;3.13;;
75446;SDS011;64024;55.820;37.574;2024-01-30T14:13:00;4.18;;;3.00;;
75446;SDS011;64024;55.820;37.574;2024-01-30T14:15:26;5.32;;;3.10;;
75446;SDS011;64024;55.820;37.574;2024-01-30T14:17:52;5.20;;;3.10;;
75446;SDS011;64024;55.820;37.574;2024-01-30T14:20:18;5.38;;;2.97;;
75446;SDS011;64024;55.820;37.574;2024-01-30T14:22:44;5.15;;;2.25;;
75446;SDS011;64024;55.820;37.574;2024-01-30T14:25:11;5.45;;;3.33;;
75446;SDS011;64024;55.820;37.574;2024-01-30T14:27:38;6.78;;;2.78;;
75446;SDS011;64024;55.820;37.574;2024-01-30T14:30:04;8.02;;;3.85;;
75446;SDS011;64024;55.820;37.574;2024-01-30T14:32:30;6.93;;;4.85;;
75446;SDS011;64024;55.820;37.574;2024-01-30T14:34:58;4.88;;;3.70;;
75446;SDS011;64024;55.820;37.574;2024-01-30T14:37:24;6.30;;;4.25;;
75446;SDS011;64024;55.820;37.574;2024-01-30T14:39:50;7.20;;;3.60;;
75446;SDS011;64024;55.820;37.574;2024-01-30T14:42:19;6.88;;;3.25;;
75446;SDS011;64024;55.820;37.574;2024-01-30T14:44:46;5.00;;;2.67;;
75446;SDS011;64024;55.820;37.574;2024-01-30T14:47:12;5.57;;;3.20;;
75446;SDS011;64024;55.820;37.574;2024-01-30T14:49:38;5.65;;;3.42;;
75446;SDS011;64024;55.820;37.574;2024-01-30T14:52:04;5.47;;;3.50;;
75446;SDS011;64024;55.820;37.574;2024-01-30T14:54:31;4.38;;;3.08;;
75446;SDS011;64024;55.820;37.574;2024-01-30T14:56:57;5.03;;;3.20;;
75446;SDS011;64024;55.820;37.574;2024-01-30T14:59:25;5.10;;;3.33;;
75446;SDS011;64024;55.820;37.574;2024-01-30T15:01:52;5.07;;;3.88;;
75446;SDS011;64024;55.820;37.574;2024-01-30T15:04:18;6.20;;;4.20;;